createdAt,value
2023-07-31T00:01:29.446Z,6
2023-07-31T00:12:29.740Z,4
2023-07-31T00:23:30.068Z,5
2023-07-31T00:34:30.390Z,4
2023-07-31T00:56:31.057Z,3
2023-07-31T01:01:36.130Z,3
2023-07-31T01:13:01.583Z,6
2023-07-31T01:18:31.757Z,4
2023-07-31T01:24:01.912Z,3
2023-07-31T01:51:32.719Z,2
2023-07-31T01:57:02.910Z,4
2023-07-31T02:02:33.097Z,2
2023-07-31T02:13:33.386Z,3
2023-07-31T02:19:03.538Z,2
2023-07-31T02:30:03.858Z,3
2023-07-31T02:35:34.051Z,4
2023-07-31T02:41:04.217Z,3
2023-07-31T02:46:34.374Z,2
2023-07-31T02:52:04.528Z,3
2023-07-31T03:03:04.920Z,2
2023-07-31T03:14:05.189Z,3
2023-07-31T03:30:35.713Z,2
2023-07-31T03:41:36.046Z,3
2023-07-31T03:47:06.209Z,2
2023-07-31T03:52:36.373Z,4
2023-07-31T03:58:06.565Z,3
2023-07-31T04:03:36.713Z,4
2023-07-31T04:09:06.894Z,3
2023-07-31T04:20:07.236Z,2
2023-07-31T04:47:38.104Z,3
2023-07-31T04:53:08.286Z,2
2023-07-31T04:58:38.401Z,1
2023-07-31T05:04:08.569Z,2
2023-07-31T05:09:38.739Z,3
2023-07-31T05:15:08.994Z,1
2023-07-31T05:20:39.075Z,3
2023-07-31T05:26:09.252Z,8
2023-07-31T05:37:14.588Z,12
2023-07-31T05:42:39.752Z,8
2023-07-31T05:48:09.958Z,11
2023-07-31T05:59:15.266Z,13
2023-07-31T06:04:40.469Z,15
2023-07-31T06:15:40.791Z,11
2023-07-31T06:21:10.937Z,9
2023-07-31T06:26:41.437Z,11
2023-07-31T06:32:11.324Z,10
2023-07-31T06:37:41.462Z,9
2023-07-31T06:43:11.605Z,12
2023-07-31T06:54:11.964Z,14
2023-07-31T06:59:42.125Z,17
2023-07-31T07:05:12.338Z,18
2023-07-31T07:16:12.631Z,16
2023-07-31T07:21:42.799Z,17
2023-07-31T07:27:12.965Z,19
2023-07-31T07:32:43.151Z,18
2023-07-31T07:38:13.299Z,17
2023-07-31T07:43:43.466Z,20
2023-07-31T07:49:13.636Z,14
2023-07-31T08:05:44.144Z,17
2023-07-31T08:11:14.301Z,16
2023-07-31T08:16:44.528Z,10
2023-07-31T08:22:14.747Z,12
2023-07-31T08:27:44.915Z,10
2023-07-31T08:33:14.987Z,13
2023-07-31T08:38:45.157Z,11
2023-07-31T08:44:15.321Z,12
2023-07-31T08:49:45.486Z,13
2023-07-31T08:55:15.669Z,11
2023-07-31T09:00:45.848Z,13
2023-07-31T09:06:16.012Z,12
2023-07-31T09:11:46.185Z,9
2023-07-31T09:17:16.339Z,10
2023-07-31T09:22:46.515Z,6
2023-07-31T09:28:16.709Z,8
2023-07-31T09:33:46.848Z,6
2023-07-31T09:39:17.011Z,5
2023-07-31T09:44:47.191Z,4
2023-07-31T09:55:47.538Z,5
2023-07-31T10:01:17.724Z,3
2023-07-31T10:06:47.872Z,4
2023-07-31T10:12:18.028Z,6
2023-07-31T10:17:48.240Z,4
2023-07-31T10:23:18.365Z,5
2023-07-31T10:28:48.518Z,4
2023-07-31T10:34:18.707Z,6
2023-07-31T10:45:19.026Z,7
2023-07-31T10:50:49.250Z,4
2023-07-31T10:56:19.366Z,5
2023-07-31T11:01:49.555Z,6
2023-07-31T11:07:19.712Z,8
2023-07-31T11:12:49.877Z,6
2023-07-31T11:18:20.058Z,5
2023-07-31T11:29:20.391Z,4
2023-07-31T11:40:23.127Z,6
2023-07-31T11:51:21.055Z,4
2023-07-31T11:56:51.244Z,5
2023-07-31T12:02:21.386Z,3
2023-07-31T12:07:51.557Z,5
2023-07-31T12:13:21.745Z,3
2023-07-31T12:24:22.062Z,4
2023-07-31T12:29:52.237Z,3
2023-07-31T12:35:22.441Z,4
2023-07-31T12:40:52.567Z,3
2023-07-31T12:57:23.081Z,2
2023-07-31T13:02:53.283Z,3
2023-07-31T13:19:23.741Z,2
2023-07-31T13:35:54.232Z,4
2023-07-31T13:41:24.411Z,2
2023-07-31T14:03:25.132Z,1
2023-07-31T14:14:25.433Z,2
2023-07-31T14:25:25.778Z,10
2023-07-31T14:30:55.952Z,9
2023-07-31T14:36:26.108Z,4
2023-07-31T14:41:56.273Z,3
2023-07-31T14:47:26.456Z,5
2023-07-31T14:52:56.607Z,3
2023-07-31T14:58:26.776Z,4
2023-07-31T15:03:56.975Z,10
2023-07-31T15:09:27.126Z,5
2023-07-31T15:20:27.475Z,4
2023-07-31T15:36:57.955Z,5
2023-07-31T15:42:28.128Z,4
2023-07-31T15:47:58.301Z,3
2023-07-31T15:53:28.453Z,5
2023-07-31T15:58:58.624Z,4
2023-07-31T16:09:59.048Z,5
2023-07-31T16:15:29.140Z,3
2023-07-31T16:20:59.307Z,4
2023-07-31T16:26:29.466Z,3
2023-07-31T16:54:00.274Z,4
2023-07-31T16:59:30.449Z,3
2023-07-31T17:05:00.623Z,2
2023-07-31T17:10:30.806Z,3
2023-07-31T17:21:31.115Z,4
2023-07-31T17:27:01.301Z,5
2023-07-31T17:32:31.460Z,4
2023-07-31T17:43:31.801Z,6
2023-07-31T17:49:01.954Z,3
2023-07-31T17:54:32.148Z,4
2023-07-31T18:05:32.462Z,3
2023-07-31T18:16:32.805Z,5
2023-07-31T18:22:02.959Z,4
2023-07-31T18:55:03.982Z,5
2023-07-31T19:00:34.150Z,4
2023-07-31T19:06:04.306Z,6
2023-07-31T19:11:34.467Z,4
2023-07-31T19:17:04.646Z,6
2023-07-31T19:28:04.980Z,5
2023-07-31T19:33:35.142Z,7
2023-07-31T19:39:05.301Z,6
2023-07-31T19:50:05.640Z,5
2023-07-31T20:12:06.322Z,6
2023-07-31T20:23:06.676Z,10
2023-07-31T20:28:36.810Z,6
2023-07-31T20:34:06.948Z,5
2023-07-31T20:39:37.112Z,8
2023-07-31T20:45:07.300Z,5
2023-07-31T20:50:37.463Z,6
2023-07-31T20:56:07.629Z,4
2023-07-31T21:01:37.850Z,7
2023-07-31T21:07:07.967Z,5
2023-07-31T21:12:38.129Z,7
2023-07-31T21:18:08.315Z,8
2023-07-31T21:23:38.458Z,7
2023-07-31T21:34:38.788Z,6
2023-07-31T21:45:39.131Z,5
2023-07-31T21:51:09.308Z,4
2023-07-31T21:56:39.580Z,6
2023-07-31T22:07:39.782Z,4
2023-07-31T22:13:09.956Z,6
2023-07-31T22:18:40.112Z,5
2023-07-31T22:24:10.287Z,3
2023-07-31T22:29:40.444Z,4
2023-07-31T22:35:10.615Z,5
2023-07-31T22:40:40.780Z,4
2023-07-31T22:51:41.128Z,3
2023-07-31T22:57:11.312Z,4
2023-07-31T23:02:41.570Z,3
2023-07-31T23:13:41.772Z,2
2023-07-31T23:24:42.123Z,3
2023-07-31T23:30:12.275Z,4
2023-07-31T23:35:42.446Z,3
2023-07-31T23:41:12.624Z,7
2023-07-31T23:46:42.846Z,3
